createdAt,value
2023-02-19T00:01:53.221Z,88.96
2023-02-19T00:04:22.569Z,88.72
2023-02-19T00:06:50.891Z,89.02
2023-02-19T00:09:19.846Z,88.78
2023-02-19T00:11:48.199Z,88.35
2023-02-19T00:14:18.998Z,88.75
2023-02-19T00:16:47.426Z,88.51
2023-02-19T00:19:17.904Z,88.83
2023-02-19T00:21:46.162Z,88.68
2023-02-19T00:24:16.239Z,88.76
2023-02-19T00:26:45.181Z,88.60
2023-02-19T00:29:15.692Z,88.14
2023-02-19T00:31:44.773Z,88.19
2023-02-19T00:34:13.946Z,88.30
2023-02-19T00:36:42.864Z,88.11
2023-02-19T00:39:15.219Z,88.13
2023-02-19T00:41:43.377Z,87.74
2023-02-19T00:44:14.417Z,87.84
2023-02-19T00:46:44.347Z,87.59
2023-02-19T00:49:16.577Z,87.73
2023-02-19T00:51:44.243Z,87.42
2023-02-19T00:54:12.935Z,87.67
2023-02-19T00:56:41.015Z,87.68
2023-02-19T00:59:09.388Z,87.04
2023-02-19T01:01:37.464Z,87.31
2023-02-19T01:04:06.697Z,87.49
2023-02-19T01:06:35.592Z,87.15
2023-02-19T01:09:05.001Z,86.80
2023-02-19T01:11:32.675Z,86.78
2023-02-19T01:14:01.741Z,86.94
2023-02-19T01:16:30.919Z,86.72
2023-02-19T01:18:59.485Z,86.70
2023-02-19T01:21:28.434Z,86.06
2023-02-19T01:23:57.359Z,86.04
2023-02-19T01:26:30.623Z,85.67
2023-02-19T01:29:00.035Z,85.19
2023-02-19T01:31:28.764Z,84.52
2023-02-19T01:34:00.026Z,85.17
2023-02-19T01:36:29.024Z,85.39
2023-02-19T01:38:57.051Z,85.34
2023-02-19T01:41:25.975Z,85.52
2023-02-19T01:43:56.562Z,85.48
2023-02-19T01:46:43.850Z,85.17
2023-02-19T01:49:27.843Z,85.38
2023-02-19T01:51:58.450Z,85.31
2023-02-19T01:54:30.916Z,85.30
2023-02-19T01:56:59.988Z,85.08
2023-02-19T01:59:27.768Z,85.14
2023-02-19T02:01:56.160Z,84.77
2023-02-19T02:04:24.486Z,84.92
2023-02-19T02:06:58.702Z,84.84
2023-02-19T02:09:49.679Z,84.70
2023-02-19T02:12:17.347Z,84.58
2023-02-19T02:14:48.081Z,84.59
2023-02-19T02:17:29.455Z,84.62
2023-02-19T02:20:26.545Z,84.94
2023-02-19T02:23:00.695Z,84.57
2023-02-19T02:26:02.005Z,84.65
2023-02-19T02:29:15.097Z,85.01
2023-02-19T02:31:48.656Z,85.01
2023-02-19T02:34:23.276Z,84.95
2023-02-19T02:36:55.680Z,84.67
2023-02-19T02:39:27.033Z,85.17
2023-02-19T02:42:18.834Z,85.02
2023-02-19T02:45:10.966Z,84.99
2023-02-19T02:47:47.680Z,84.85
2023-02-19T02:50:18.606Z,84.95
2023-02-19T02:53:08.890Z,85.04
2023-02-19T02:55:43.014Z,84.66
2023-02-19T02:58:12.484Z,84.75
2023-02-19T03:01:04.268Z,84.56
2023-02-19T03:03:32.627Z,84.37
2023-02-19T03:06:04.821Z,84.65
2023-02-19T03:08:40.551Z,84.29
2023-02-19T03:11:30.383Z,84.19
2023-02-19T03:14:28.745Z,84.07
2023-02-19T03:17:26.733Z,84.13
2023-02-19T03:19:58.338Z,84.42
2023-02-19T03:22:31.026Z,83.51
2023-02-19T03:25:28.354Z,83.97
2023-02-19T03:28:00.432Z,84.25
2023-02-19T03:30:39.165Z,83.50
2023-02-19T03:33:15.828Z,83.37
2023-02-19T03:36:06.621Z,83.72
2023-02-19T03:38:41.288Z,83.65
2023-02-19T03:41:25.762Z,83.41
2023-02-19T03:44:07.797Z,83.14
2023-02-19T03:46:53.892Z,83.12
2023-02-19T03:49:43.682Z,82.85
2023-02-19T03:52:20.585Z,82.85
2023-02-19T03:54:58.634Z,82.80
2023-02-19T03:57:48.400Z,83.04
2023-02-19T04:00:32.904Z,82.97
2023-02-19T04:03:12.385Z,82.76
2023-02-19T04:05:52.022Z,82.30
2023-02-19T04:08:24.295Z,82.18
2023-02-19T04:11:00.138Z,82.57
2023-02-19T04:13:46.705Z,82.52
2023-02-19T04:16:24.457Z,82.86
2023-02-19T04:18:57.253Z,82.77
2023-02-19T04:21:26.730Z,82.41
2023-02-19T04:23:56.262Z,82.79
2023-02-19T04:26:24.256Z,82.89
2023-02-19T04:28:51.943Z,82.59
2023-02-19T04:31:19.846Z,82.34
2023-02-19T04:33:47.522Z,82.30
2023-02-19T04:36:15.136Z,82.25
2023-02-19T04:38:42.771Z,82.73
2023-02-19T04:41:10.864Z,82.47
2023-02-19T04:43:38.664Z,82.69
2023-02-19T04:46:06.299Z,82.82
2023-02-19T04:48:33.980Z,82.74
2023-02-19T04:51:06.664Z,82.86
2023-02-19T04:53:35.921Z,82.83
2023-02-19T04:56:09.002Z,82.92
2023-02-19T05:09:00.113Z,83.36
2023-02-19T05:11:27.952Z,83.31
2023-02-19T05:13:56.231Z,83.43
2023-02-19T05:16:23.923Z,83.43
2023-02-19T05:18:51.542Z,83.37
2023-02-19T05:21:19.503Z,83.09
2023-02-19T05:23:47.163Z,82.92
2023-02-19T05:26:21.294Z,82.95
2023-02-19T05:28:53.350Z,83.18
2023-02-19T05:31:21.626Z,83.29
2023-02-19T05:33:51.351Z,83.59
2023-02-19T05:36:20.353Z,83.51
2023-02-19T05:38:52.763Z,83.38
2023-02-19T05:41:24.421Z,82.90
2023-02-19T05:43:52.283Z,83.15
2023-02-19T05:46:23.018Z,83.55
2023-02-19T05:48:52.372Z,83.30
2023-02-19T05:51:22.780Z,83.67
2023-02-19T05:53:51.168Z,83.41
2023-02-19T05:56:30.922Z,83.78
2023-02-19T05:59:00.085Z,83.73
2023-02-19T06:01:28.980Z,83.48
2023-02-19T06:03:58.036Z,83.68
2023-02-19T06:06:27.186Z,83.78
2023-02-19T06:08:55.040Z,83.72
2023-02-19T06:11:23.652Z,84.23
2023-02-19T06:13:51.502Z,83.82
2023-02-19T06:16:19.714Z,83.97
2023-02-19T06:18:47.730Z,83.68
2023-02-19T06:21:17.029Z,84.31
2023-02-19T06:23:45.078Z,84.39
2023-02-19T06:26:20.463Z,84.15
2023-02-19T06:28:50.290Z,84.20
2023-02-19T06:31:19.671Z,84.37
2023-02-19T06:33:47.710Z,84.18
2023-02-19T06:36:17.796Z,84.20
2023-02-19T06:38:45.663Z,84.28
2023-02-19T06:41:14.197Z,83.86
2023-02-19T06:43:42.770Z,84.17
2023-02-19T06:46:12.034Z,84.18
2023-02-19T06:48:41.208Z,84.15
2023-02-19T06:51:14.041Z,83.95
2023-02-19T06:53:42.191Z,84.19
2023-02-19T06:56:29.703Z,83.95
2023-02-19T06:59:01.023Z,83.75
2023-02-19T07:01:34.264Z,84.00
2023-02-19T07:04:02.932Z,83.96
2023-02-19T07:06:31.262Z,83.89
2023-02-19T07:08:59.139Z,83.89
2023-02-19T07:11:29.933Z,84.09
2023-02-19T07:13:59.463Z,83.68
2023-02-19T07:16:27.389Z,83.76
2023-02-19T07:18:59.199Z,84.01
2023-02-19T07:21:28.178Z,83.79
2023-02-19T07:23:56.427Z,83.64
2023-02-19T07:26:24.201Z,83.63
2023-02-19T07:28:54.321Z,83.67
2023-02-19T07:31:24.212Z,83.61
2023-02-19T07:33:52.318Z,83.45
2023-02-19T07:36:21.659Z,83.80
2023-02-19T07:39:00.737Z,83.68
2023-02-19T07:41:28.717Z,83.52
2023-02-19T07:43:59.113Z,83.75
2023-02-19T07:46:27.648Z,84.00
2023-02-19T07:48:56.107Z,83.68
2023-02-19T07:51:24.622Z,84.26
2023-02-19T07:53:52.779Z,83.84
2023-02-19T07:56:21.377Z,83.56
2023-02-19T07:58:49.762Z,83.64
2023-02-19T08:01:45.511Z,83.57
2023-02-19T08:04:14.514Z,83.47
2023-02-19T08:06:44.330Z,83.66
2023-02-19T08:09:12.080Z,83.82
2023-02-19T08:11:58.481Z,83.67
2023-02-19T08:14:27.628Z,83.91
2023-02-19T08:16:55.816Z,83.57
2023-02-19T08:19:24.488Z,83.68
2023-02-19T08:21:53.595Z,83.62
2023-02-19T08:24:22.451Z,83.59
2023-02-19T08:26:50.342Z,83.49
2023-02-19T08:29:18.150Z,83.45
2023-02-19T08:31:46.053Z,83.36
2023-02-19T08:34:13.728Z,83.24
2023-02-19T08:36:41.558Z,83.54
2023-02-19T08:39:10.232Z,83.17
2023-02-19T08:41:45.274Z,83.15
2023-02-19T08:44:13.331Z,83.27
2023-02-19T08:46:41.454Z,83.00
2023-02-19T08:49:09.246Z,82.60
2023-02-19T08:51:39.614Z,82.54
2023-02-19T08:54:07.394Z,82.89
2023-02-19T08:56:35.148Z,82.34
2023-02-19T08:59:03.024Z,82.43
2023-02-19T09:01:30.818Z,82.14
2023-02-19T09:03:58.679Z,81.86
2023-02-19T09:06:26.632Z,81.93
2023-02-19T09:08:54.532Z,82.22
2023-02-19T09:11:22.226Z,81.94
2023-02-19T09:13:49.880Z,81.50
2023-02-19T09:16:17.596Z,81.67
2023-02-19T09:18:45.890Z,81.53
2023-02-19T09:21:13.743Z,80.80
2023-02-19T09:23:41.528Z,80.78
2023-02-19T09:26:11.432Z,80.33
2023-02-19T09:28:41.662Z,79.86
2023-02-19T09:31:13.122Z,79.75
2023-02-19T09:33:46.000Z,79.42
2023-02-19T09:36:15.091Z,78.80
2023-02-19T09:38:42.862Z,79.71
2023-02-19T09:41:30.803Z,78.13
2023-02-19T09:44:02.008Z,78.35
2023-02-19T09:46:40.820Z,78.64
2023-02-19T09:49:17.413Z,77.99
2023-02-19T09:52:00.060Z,77.82
2023-02-19T09:54:31.012Z,77.72
2023-02-19T09:57:02.205Z,77.76
2023-02-19T09:59:40.382Z,77.78
2023-02-19T10:02:11.556Z,77.24
2023-02-19T10:04:42.838Z,77.41
2023-02-19T10:07:13.538Z,76.73
2023-02-19T10:09:41.745Z,76.13
2023-02-19T10:12:21.981Z,76.76
2023-02-19T10:14:52.808Z,76.82
2023-02-19T10:31:24.088Z,74.51
2023-02-19T10:33:51.697Z,72.82
2023-02-19T10:36:38.244Z,72.91
2023-02-19T10:39:32.920Z,73.29
2023-02-19T10:41:59.843Z,73.09
2023-02-19T10:44:37.953Z,72.03
2023-02-19T10:47:05.754Z,72.92
2023-02-19T10:49:47.051Z,72.33
2023-02-19T10:52:34.818Z,71.95
2023-02-19T10:55:37.927Z,72.34
2023-02-19T10:58:27.069Z,72.75
2023-02-19T11:01:18.746Z,72.51
2023-02-19T11:03:47.830Z,71.13
2023-02-19T11:06:16.977Z,69.81
2023-02-19T11:09:00.355Z,69.30
2023-02-19T11:11:40.740Z,68.84
2023-02-19T11:14:27.431Z,69.06
2023-02-19T11:16:57.074Z,68.95
2023-02-19T11:19:28.411Z,70.03
2023-02-19T11:21:56.233Z,69.77
2023-02-19T11:24:34.418Z,68.88
2023-02-19T11:27:05.265Z,67.47
2023-02-19T11:29:34.968Z,66.37
2023-02-19T11:32:24.813Z,66.90
2023-02-19T11:35:04.966Z,66.87
2023-02-19T11:37:31.257Z,66.98
2023-02-19T11:39:58.089Z,66.40
2023-02-19T11:42:50.648Z,66.43
2023-02-19T11:45:34.042Z,66.60
2023-02-19T11:48:14.728Z,66.91
2023-02-19T11:51:16.604Z,67.62
2023-02-19T11:53:51.400Z,67.61
2023-02-19T11:56:33.337Z,67.45
2023-02-19T11:59:15.809Z,67.34
2023-02-19T12:02:11.487Z,67.17
2023-02-19T12:05:11.371Z,66.47
2023-02-19T12:08:07.685Z,65.34
2023-02-19T12:11:19.095Z,65.41
2023-02-19T12:13:45.408Z,65.03
2023-02-19T12:16:30.207Z,65.74
2023-02-19T12:19:12.018Z,66.47
2023-02-19T12:21:59.937Z,66.10
2023-02-19T12:24:48.325Z,65.44
2023-02-19T12:27:41.448Z,64.93
2023-02-19T12:30:17.359Z,64.44
2023-02-19T12:33:05.349Z,64.75
2023-02-19T12:35:58.066Z,64.74
2023-02-19T12:38:34.628Z,63.81
2023-02-19T12:41:31.520Z,64.73
2023-02-19T12:44:23.756Z,65.66
2023-02-19T12:47:00.588Z,65.62
2023-02-19T12:49:35.242Z,66.15
2023-02-19T12:52:09.411Z,66.04
2023-02-19T12:54:43.396Z,65.37
2023-02-19T12:57:20.142Z,65.92
2023-02-19T12:59:56.098Z,66.40
2023-02-19T13:02:33.284Z,67.30
2023-02-19T13:05:17.926Z,67.30
2023-02-19T13:08:15.701Z,66.96
2023-02-19T13:11:20.169Z,67.37
2023-02-19T13:13:59.044Z,67.77
2023-02-19T13:19:15.244Z,68.44
2023-02-19T13:22:09.710Z,68.52
2023-02-19T13:24:42.132Z,68.68
2023-02-19T13:27:34.694Z,68.87
2023-02-19T13:30:24.351Z,68.73
2023-02-19T13:33:05.334Z,68.94
2023-02-19T13:35:58.446Z,68.03
2023-02-19T13:38:27.075Z,67.96
2023-02-19T13:41:00.149Z,67.58
2023-02-19T13:43:37.122Z,67.36
2023-02-19T13:46:09.701Z,66.43
2023-02-19T13:48:40.568Z,67.01
2023-02-19T13:51:23.694Z,66.52
2023-02-19T13:53:54.590Z,66.55
2023-02-19T13:56:34.495Z,66.70
2023-02-19T13:59:37.641Z,67.04
2023-02-19T14:02:25.934Z,66.92
2023-02-19T14:05:02.017Z,67.02
2023-02-19T14:07:51.147Z,66.49
2023-02-19T14:10:52.129Z,66.34
2023-02-19T14:13:47.589Z,64.25
2023-02-19T14:16:52.685Z,63.20
2023-02-19T14:19:42.722Z,62.52
2023-02-19T14:22:48.847Z,62.38
2023-02-19T14:25:28.566Z,61.50
2023-02-19T14:28:15.388Z,61.93
2023-02-19T14:30:59.311Z,61.93
2023-02-19T14:33:31.506Z,62.32
2023-02-19T14:36:06.176Z,62.42
2023-02-19T14:38:39.524Z,62.31
2023-02-19T14:41:13.732Z,61.87
2023-02-19T14:43:43.654Z,61.95
2023-02-19T14:46:31.241Z,62.07
2023-02-19T14:49:07.288Z,62.36
2023-02-19T14:51:44.870Z,62.89
2023-02-19T14:54:21.073Z,63.03
2023-02-19T14:56:55.237Z,63.18
2023-02-19T14:59:26.784Z,63.90
2023-02-19T15:02:03.689Z,63.63
2023-02-19T15:04:36.884Z,63.31
2023-02-19T15:07:08.513Z,63.54
2023-02-19T15:09:41.279Z,63.66
2023-02-19T15:12:17.291Z,63.22
2023-02-19T15:14:46.645Z,62.95
2023-02-19T15:17:25.571Z,62.33
2023-02-19T15:19:55.570Z,61.84
2023-02-19T15:22:25.895Z,62.14
2023-02-19T15:24:54.702Z,62.06
2023-02-19T15:27:24.544Z,62.70
2023-02-19T15:29:53.768Z,62.11
2023-02-19T15:32:27.251Z,61.39
2023-02-19T15:35:03.991Z,61.65
2023-02-19T15:37:35.689Z,62.17
2023-02-19T15:40:07.732Z,62.38
2023-02-19T15:42:37.213Z,62.91
2023-02-19T15:45:23.680Z,63.07
2023-02-19T15:47:55.656Z,63.31
2023-02-19T15:50:33.217Z,64.08
2023-02-19T15:53:09.513Z,64.26
2023-02-19T15:55:45.056Z,64.63
2023-02-19T15:58:32.323Z,64.92
2023-02-19T16:01:04.747Z,65.17
2023-02-19T16:03:32.817Z,65.72
2023-02-19T16:06:11.473Z,65.64
2023-02-19T16:08:40.874Z,66.08
2023-02-19T16:11:24.055Z,66.25
2023-02-19T16:13:52.116Z,67.06
2023-02-19T16:19:43.994Z,67.38
2023-02-19T16:22:15.980Z,67.36
2023-02-19T16:24:46.874Z,67.65
2023-02-19T16:27:40.817Z,67.44
2023-02-19T16:30:36.238Z,67.75
2023-02-19T16:33:21.280Z,67.87
2023-02-19T16:35:55.135Z,67.79
2023-02-19T16:38:25.432Z,68.29
2023-02-19T16:41:07.440Z,68.29
2023-02-19T16:43:41.689Z,68.47
2023-02-19T16:46:11.959Z,68.56
2023-02-19T16:48:39.821Z,68.64
2023-02-19T16:51:09.020Z,68.61
2023-02-19T16:53:36.922Z,68.21
2023-02-19T16:56:05.060Z,68.08
2023-02-19T16:58:32.777Z,68.08
2023-02-19T17:01:02.251Z,67.81
2023-02-19T17:03:30.261Z,68.05
2023-02-19T17:05:57.945Z,68.20
2023-02-19T17:08:34.044Z,67.83
2023-02-19T17:11:05.508Z,67.91
2023-02-19T17:13:33.432Z,67.95
2023-02-19T17:16:01.991Z,68.03
2023-02-19T17:18:30.021Z,67.98
2023-02-19T17:21:20.476Z,68.02
2023-02-19T17:23:51.448Z,67.77
2023-02-19T17:26:22.988Z,67.92
2023-02-19T17:28:51.288Z,67.65
2023-02-19T17:31:19.221Z,68.04
2023-02-19T17:33:47.109Z,68.06
2023-02-19T17:36:22.365Z,68.02
2023-02-19T17:38:50.742Z,68.33
2023-02-19T17:41:18.734Z,68.88
2023-02-19T17:43:47.521Z,68.74
2023-02-19T17:46:21.297Z,68.74
2023-02-19T17:48:50.893Z,68.94
2023-02-19T17:51:18.861Z,69.05
2023-02-19T17:53:47.015Z,69.19
2023-02-19T17:56:22.404Z,69.29
2023-02-19T17:58:50.363Z,69.67
2023-02-19T18:01:18.306Z,69.93
2023-02-19T18:03:46.434Z,69.89
2023-02-19T18:06:14.555Z,70.18
2023-02-19T18:08:52.656Z,70.45
2023-02-19T18:11:22.700Z,69.97
2023-02-19T18:13:52.034Z,70.26
2023-02-19T18:16:20.046Z,70.16
2023-02-19T18:18:47.952Z,69.99
2023-02-19T18:21:15.839Z,70.12
2023-02-19T18:23:43.726Z,70.05
2023-02-19T18:26:11.940Z,70.29
2023-02-19T18:28:40.277Z,70.04
2023-02-19T18:31:08.632Z,69.81
2023-02-19T18:33:37.912Z,69.99
2023-02-19T18:36:11.596Z,70.53
2023-02-19T18:38:39.463Z,70.12
2023-02-19T18:41:11.433Z,70.32
2023-02-19T18:43:41.524Z,70.44
2023-02-19T18:46:10.266Z,70.11
2023-02-19T18:48:38.511Z,69.94
2023-02-19T18:51:10.940Z,69.96
2023-02-19T18:53:38.899Z,70.30
2023-02-19T18:56:09.028Z,70.14
2023-02-19T18:58:36.764Z,70.04
2023-02-19T19:01:04.731Z,69.94
2023-02-19T19:03:32.481Z,70.25
2023-02-19T19:06:00.703Z,70.48
2023-02-19T19:08:30.651Z,70.35
2023-02-19T19:10:58.804Z,70.26
2023-02-19T19:13:26.733Z,69.87
2023-02-19T19:15:54.837Z,70.21
2023-02-19T19:18:22.835Z,70.09
2023-02-19T19:20:50.662Z,69.71
2023-02-19T19:23:18.493Z,69.40
2023-02-19T19:25:48.683Z,69.31
2023-02-19T19:28:17.353Z,69.51
2023-02-19T19:30:45.199Z,69.56
2023-02-19T19:33:17.885Z,69.42
2023-02-19T19:35:45.587Z,69.58
2023-02-19T19:38:13.352Z,69.43
2023-02-19T19:40:42.324Z,69.18
2023-02-19T19:43:10.257Z,69.33
2023-02-19T19:45:38.561Z,68.88
2023-02-19T19:48:06.354Z,68.98
2023-02-19T19:50:34.267Z,68.70
2023-02-19T19:53:02.011Z,68.76
2023-02-19T19:55:29.954Z,68.88
2023-02-19T19:57:57.753Z,68.57
2023-02-19T20:00:25.782Z,68.36
2023-02-19T20:02:53.600Z,68.90
2023-02-19T20:05:21.952Z,68.62
2023-02-19T20:07:52.917Z,68.71
2023-02-19T20:10:20.939Z,69.02
2023-02-19T20:12:49.622Z,68.66
2023-02-19T20:15:22.295Z,69.23
2023-02-19T20:20:35.885Z,69.35
2023-02-19T20:23:04.237Z,69.17
2023-02-19T20:25:31.998Z,69.44
2023-02-19T20:27:59.880Z,68.91
2023-02-19T20:30:29.074Z,69.28
2023-02-19T20:32:57.310Z,69.63
2023-02-19T20:35:28.727Z,69.60
2023-02-19T20:37:56.805Z,69.34
2023-02-19T20:40:27.482Z,69.68
2023-02-19T20:42:55.200Z,69.45
2023-02-19T20:45:23.138Z,69.95
2023-02-19T20:47:50.872Z,69.94
2023-02-19T20:50:19.216Z,70.04
2023-02-19T20:52:49.431Z,70.30
2023-02-19T20:55:17.515Z,70.68
2023-02-19T20:57:45.830Z,70.43
2023-02-19T21:00:15.653Z,70.67
2023-02-19T21:02:43.564Z,70.68
2023-02-19T21:05:13.883Z,70.86
2023-02-19T21:07:41.501Z,70.66
2023-02-19T21:10:10.086Z,70.72
2023-02-19T21:12:38.212Z,70.75
2023-02-19T21:15:06.436Z,71.17
2023-02-19T21:17:34.498Z,71.24
2023-02-19T21:20:02.551Z,71.21
2023-02-19T21:22:31.991Z,71.12
2023-02-19T21:24:59.782Z,71.03
2023-02-19T21:27:27.825Z,71.16
2023-02-19T21:29:55.862Z,71.37
2023-02-19T21:32:23.702Z,71.12
2023-02-19T21:34:51.543Z,71.50
2023-02-19T21:37:21.051Z,71.64
2023-02-19T21:39:48.900Z,71.68
2023-02-19T21:42:18.925Z,71.63
2023-02-19T21:44:46.692Z,72.10
2023-02-19T21:47:14.835Z,72.25
2023-02-19T21:49:43.216Z,72.41
2023-02-19T21:52:10.991Z,72.48
2023-02-19T21:54:38.690Z,72.43
2023-02-19T21:57:06.747Z,72.66
2023-02-19T21:59:34.602Z,72.81
2023-02-19T22:02:02.767Z,72.83
2023-02-19T22:04:30.584Z,73.02
2023-02-19T22:06:58.486Z,73.26
2023-02-19T22:09:26.571Z,73.51
2023-02-19T22:11:54.416Z,73.60
2023-02-19T22:14:22.144Z,73.71
2023-02-19T22:16:49.947Z,73.92
2023-02-19T22:19:17.789Z,73.81
2023-02-19T22:21:45.567Z,73.81
2023-02-19T22:24:18.693Z,74.37
2023-02-19T22:26:46.542Z,74.43
2023-02-19T22:29:16.060Z,74.50
2023-02-19T22:31:43.855Z,74.85
2023-02-19T22:34:11.828Z,74.80
2023-02-19T22:36:40.303Z,74.95
2023-02-19T22:39:14.895Z,75.18
2023-02-19T22:41:43.154Z,76.03
2023-02-19T22:44:11.376Z,75.58
2023-02-19T22:46:39.329Z,75.42
2023-02-19T22:49:07.453Z,75.46
2023-02-19T22:51:35.642Z,75.65
2023-02-19T22:54:03.568Z,75.43
2023-02-19T22:56:31.180Z,75.42
2023-02-19T22:59:00.496Z,75.35
2023-02-19T23:01:28.326Z,75.41
2023-02-19T23:03:58.238Z,75.42
2023-02-19T23:06:31.980Z,75.38
2023-02-19T23:09:04.810Z,75.25
2023-02-19T23:11:35.158Z,75.38
2023-02-19T23:14:03.330Z,75.20
2023-02-19T23:19:56.973Z,74.95
2023-02-19T23:22:24.739Z,75.02
2023-02-19T23:24:52.396Z,74.14
2023-02-19T23:27:20.265Z,74.77
2023-02-19T23:29:47.909Z,74.50
2023-02-19T23:32:20.834Z,74.45
2023-02-19T23:34:48.520Z,74.15
2023-02-19T23:37:16.759Z,74.24
2023-02-19T23:39:44.780Z,74.32
2023-02-19T23:42:16.566Z,73.93
2023-02-19T23:44:47.744Z,73.48
2023-02-19T23:47:15.624Z,73.74
2023-02-19T23:49:43.327Z,73.90
2023-02-19T23:52:11.013Z,74.29
2023-02-19T23:54:39.516Z,74.63
2023-02-19T23:57:07.300Z,74.77
2023-02-19T23:59:34.959Z,75.59
